Time;durP1;ratioP1;P1;durP2;ratioP2;P2;SDS_P1;SDS_P2;PMS_P1;PMS_P2;Temp;Humidity;BMP_temperature;BMP_pressure;BME280_temperature;BME280_humidity;BME280_pressure;Samples;Min_cycle;Max_cycle;Signal;HPM_P1;HPM_P2
2022/06/20 00:00:13;;;;;;;7.90;4.82;;;;;;;;;;4189294;28;21162;-74
2022/06/20 00:02:24;;;;;;;9.68;5.05;;;;;;;;;;4198092;28;20058;-74
2022/06/20 00:04:26;;;;;;;16.48;5.18;;;;;;;;;;4193118;28;20067;-74
2022/06/20 00:06:28;;;;;;;6.88;5.07;;;;;;;;;;4199610;28;20079;-74
2022/06/20 00:08:30;;;;;;;11.32;5.15;;;;;;;;;;4212734;28;20563;-73
2022/06/20 00:10:32;;;;;;;9.30;5.07;;;;;;;;;;4200451;28;20063;-74
2022/06/20 00:12:34;;;;;;;10.00;4.95;;;;;;;;;;4200148;28;20063;-74
2022/06/20 00:14:37;;;;;;;10.48;4.82;;;;;;;;;;4197558;28;20115;-74
2022/06/20 00:16:40;;;;;;;7.43;4.80;;;;;;;;;;4213694;28;20056;-75
2022/06/20 00:18:42;;;;;;;9.88;5.07;;;;;;;;;;4193023;28;20914;-74
2022/06/20 00:20:44;;;;;;;10.15;5.47;;;;;;;;;;4207324;28;20057;-74
2022/06/20 00:22:47;;;;;;;7.75;4.57;;;;;;;;;;4203127;28;20183;-74
2022/06/20 00:24:49;;;;;;;10.15;5.00;;;;;;;;;;4196051;28;20134;-74
2022/06/20 00:26:51;;;;;;;11.73;5.05;;;;;;;;;;4201989;28;20541;-74
2022/06/20 00:28:53;;;;;;;9.07;4.93;;;;;;;;;;4198435;28;20910;-74
2022/06/20 00:30:55;;;;;;;7.40;4.75;;;;;;;;;;4201508;28;20042;-74
2022/06/20 00:32:57;;;;;;;6.22;4.40;;;;;;;;;;4195797;28;20796;-74
2022/06/20 00:35:00;;;;;;;7.43;5.03;;;;;;;;;;4208955;28;20086;-74
2022/06/20 00:37:05;;;;;;;6.90;4.60;;;;;;;;;;4209223;28;20864;-74
2022/06/20 00:39:07;;;;;;;7.05;4.93;;;;;;;;;;4200984;28;20064;-74
2022/06/20 00:41:17;;;;;;;8.43;5.47;;;;;;;;;;4208093;28;20080;-74
2022/06/20 00:43:28;;;;;;;10.00;4.95;;;;;;;;;;4199981;28;20862;-74
2022/06/20 00:45:32;;;;;;;9.65;4.50;;;;;;;;;;4202418;28;20072;-74
2022/06/20 00:47:35;;;;;;;7.85;5.28;;;;;;;;;;4203799;28;20052;-74
2022/06/20 00:49:43;;;;;;;9.00;5.63;;;;;;;;;;4184702;28;20057;-74
2022/06/20 00:52:03;;;;;;;14.05;5.53;;;;;;;;;;4200590;28;20854;-74
2022/06/20 00:54:11;;;;;;;8.70;5.30;;;;;;;;;;4194411;28;20104;-74
2022/06/20 00:56:17;;;;;;;10.48;4.88;;;;;;;;;;4190155;28;20115;-74
2022/06/20 00:58:30;;;;;;;12.68;5.25;;;;;;;;;;4199559;28;20061;-74
2022/06/20 01:00:33;;;;;;;8.05;5.30;;;;;;;;;;4199131;28;20068;-74
2022/06/20 01:02:37;;;;;;;12.45;6.97;;;;;;;;;;4201533;28;20795;-73
2022/06/20 01:04:48;;;;;;;20.23;7.97;;;;;;;;;;4200187;28;21528;-73
2022/06/20 01:06:54;;;;;;;26.23;8.40;;;;;;;;;;4197731;28;20796;-73
2022/06/20 01:09:02;;;;;;;18.02;8.45;;;;;;;;;;4204754;28;20056;-73
2022/06/20 01:11:16;;;;;;;19.95;8.02;;;;;;;;;;4197974;28;20060;-73
2022/06/20 01:13:20;;;;;;;20.75;8.05;;;;;;;;;;4201753;28;20061;-73
2022/06/20 01:15:24;;;;;;;16.90;8.15;;;;;;;;;;4204708;28;20168;-74
2022/06/20 01:17:37;;;;;;;15.23;8.40;;;;;;;;;;4192222;28;20068;-73
2022/06/20 01:19:39;;;;;;;19.33;9.50;;;;;;;;;;4192589;28;20061;-73
2022/06/20 01:21:42;;;;;;;20.02;9.13;;;;;;;;;;4197578;28;20076;-73
2022/06/20 01:23:53;;;;;;;17.45;7.95;;;;;;;;;;4201343;28;20144;-73
2022/06/20 01:26:03;;;;;;;16.23;8.05;;;;;;;;;;4181485;28;20172;-73
2022/06/20 01:28:10;;;;;;;17.50;7.83;;;;;;;;;;4205458;28;20083;-73
2022/06/20 01:30:12;;;;;;;15.35;7.68;;;;;;;;;;4203756;28;20868;-73
2022/06/20 01:32:14;;;;;;;13.38;8.25;;;;;;;;;;4205843;28;20068;-73
2022/06/20 01:34:18;;;;;;;16.85;8.07;;;;;;;;;;4200048;28;20061;-73
2022/06/20 01:38:43;;;;;;;13.88;8.02;;;;;;;;;;4201657;28;20695;-73
2022/06/20 01:43:07;;;;;;;15.38;7.97;;;;;;;;;;4199712;28;20159;-72
2022/06/20 01:47:30;;;;;;;;;;;;;;;;;;4203807;28;20095;-72
2022/06/20 01:49:33;;;;;;;14.82;8.15;;;;;;;;;;4202776;28;42535;-72
2022/06/20 01:51:42;;;;;;;11.00;8.35;;;;;;;;;;4205668;28;20056;-72
2022/06/20 01:53:44;;;;;;;18.05;8.07;;;;;;;;;;4198171;28;21019;-72
2022/06/20 01:55:49;;;;;;;15.70;7.93;;;;;;;;;;4201601;28;20779;-72
2022/06/20 01:57:55;;;;;;;16.30;8.05;;;;;;;;;;4199622;28;20057;-73
2022/06/20 02:00:02;;;;;;;12.95;7.00;;;;;;;;;;4200317;28;20731;-72
2022/06/20 02:02:05;;;;;;;11.02;7.50;;;;;;;;;;4203805;28;20063;-72
2022/06/20 02:04:11;;;;;;;13.95;7.05;;;;;;;;;;4198057;28;20049;-73
2022/06/20 02:06:15;;;;;;;12.55;6.53;;;;;;;;;;4202926;28;20179;-72
2022/06/20 02:08:18;;;;;;;9.98;6.72;;;;;;;;;;4198087;28;20069;-72
2022/06/20 02:10:27;;;;;;;10.68;5.65;;;;;;;;;;4203298;28;20056;-73
2022/06/20 02:12:31;;;;;;;16.17;6.47;;;;;;;;;;4208181;28;20079;-73
2022/06/20 02:14:43;;;;;;;14.32;6.72;;;;;;;;;;4196682;28;20066;-72
2022/06/20 02:16:47;;;;;;;14.70;5.47;;;;;;;;;;4196996;28;20063;-73
2022/06/20 02:18:51;;;;;;;9.60;5.40;;;;;;;;;;4197539;28;20095;-72
2022/06/20 02:20:56;;;;;;;12.23;6.70;;;;;;;;;;4198602;28;20130;-72
2022/06/20 02:22:59;;;;;;;9.98;5.93;;;;;;;;;;4196439;28;20057;-72
2022/06/20 02:25:06;;;;;;;11.25;6.53;;;;;;;;;;4196623;28;20057;-72
2022/06/20 02:27:12;;;;;;;13.38;6.57;;;;;;;;;;4196534;28;20593;-72
2022/06/20 02:29:22;;;;;;;10.70;5.57;;;;;;;;;;4199880;28;20075;-72
2022/06/20 02:31:25;;;;;;;8.82;5.18;;;;;;;;;;4196593;28;20152;-72
2022/06/20 02:33:29;;;;;;;13.98;6.28;;;;;;;;;;4192259;28;20123;-73
2022/06/20 02:35:31;;;;;;;14.95;5.65;;;;;;;;;;4197672;28;20107;-73
2022/06/20 02:37:34;;;;;;;14.13;5.57;;;;;;;;;;4197655;28;20065;-73
2022/06/20 02:39:41;;;;;;;11.40;4.63;;;;;;;;;;4197990;28;20148;-74
2022/06/20 02:41:44;;;;;;;9.23;5.03;;;;;;;;;;4195720;28;20093;-74
2022/06/20 02:43:48;;;;;;;11.80;6.10;;;;;;;;;;4209521;28;20063;-74
2022/06/20 02:45:51;;;;;;;17.65;6.22;;;;;;;;;;4209970;28;20174;-74
2022/06/20 02:47:56;;;;;;;16.73;6.35;;;;;;;;;;4198120;28;20155;-74
2022/06/20 02:49:59;;;;;;;12.50;5.85;;;;;;;;;;4206002;28;20778;-74
2022/06/20 02:52:02;;;;;;;12.55;5.75;;;;;;;;;;4185045;28;20057;-74
2022/06/20 02:54:06;;;;;;;8.93;4.93;;;;;;;;;;4205679;28;20057;-75
2022/06/20 02:56:09;;;;;;;8.07;4.82;;;;;;;;;;4196536;28;20060;-74
2022/06/20 02:58:13;;;;;;;14.63;6.05;;;;;;;;;;4205415;28;20152;-75
2022/06/20 03:00:18;;;;;;;12.15;5.25;;;;;;;;;;4197987;28;20096;-75
2022/06/20 03:02:23;;;;;;;14.80;5.78;;;;;;;;;;4202267;28;20164;-75
2022/06/20 03:04:25;;;;;;;8.75;5.03;;;;;;;;;;4193659;28;20060;-75
2022/06/20 03:06:30;;;;;;;12.20;5.28;;;;;;;;;;4199921;28;20057;-75
2022/06/20 03:08:32;;;;;;;8.75;4.70;;;;;;;;;;4194905;28;20056;-74
2022/06/20 03:10:36;;;;;;;11.50;4.80;;;;;;;;;;4203424;28;20063;-74
2022/06/20 03:12:38;;;;;;;8.18;4.55;;;;;;;;;;4191599;28;20887;-74
2022/06/20 03:14:46;;;;;;;15.07;5.93;;;;;;;;;;4202067;28;20053;-74
2022/06/20 03:16:48;;;;;;;7.93;4.57;;;;;;;;;;4198621;28;20053;-74
2022/06/20 03:18:51;;;;;;;11.32;5.13;;;;;;;;;;4195713;28;20203;-74
2022/06/20 03:20:54;;;;;;;11.32;5.57;;;;;;;;;;4200831;28;20068;-74
2022/06/20 03:23:00;;;;;;;15.02;5.03;;;;;;;;;;4196127;28;20071;-74
2022/06/20 03:25:03;;;;;;;11.40;5.60;;;;;;;;;;4197987;28;20208;-74
2022/06/20 03:27:07;;;;;;;11.90;6.28;;;;;;;;;;4202886;28;20894;-74
2022/06/20 03:29:13;;;;;;;12.18;5.00;;;;;;;;;;4203389;28;20179;-75
2022/06/20 03:31:16;;;;;;;16.25;5.50;;;;;;;;;;4195095;28;20057;-74
2022/06/20 03:33:18;;;;;;;13.15;5.75;;;;;;;;;;4193353;28;20869;-74
2022/06/20 03:35:21;;;;;;;14.00;6.05;;;;;;;;;;4195911;28;20060;-74
2022/06/20 03:37:23;;;;;;;13.02;5.63;;;;;;;;;;4200482;28;20118;-74
2022/06/20 03:39:26;;;;;;;12.50;5.47;;;;;;;;;;4188652;28;20076;-74
2022/06/20 03:41:28;;;;;;;13.63;5.28;;;;;;;;;;4200117;28;20171;-74
2022/06/20 03:43:30;;;;;;;9.52;5.30;;;;;;;;;;4193924;28;20894;-73
2022/06/20 03:45:34;;;;;;;15.32;5.65;;;;;;;;;;4197290;28;20228;-75
2022/06/20 03:47:41;;;;;;;13.18;5.18;;;;;;;;;;4195202;28;20840;-74
2022/06/20 03:49:50;;;;;;;17.85;6.38;;;;;;;;;;4199193;28;20140;-73
2022/06/20 03:52:09;;;;;;;12.70;6.55;;;;;;;;;;4197618;28;20179;-73
2022/06/20 03:54:22;;;;;;;14.35;5.65;;;;;;;;;;4199038;28;20146;-73
2022/06/20 03:56:27;;;;;;;11.65;7.13;;;;;;;;;;4197004;28;20159;-73
2022/06/20 03:58:32;;;;;;;13.02;6.32;;;;;;;;;;4193442;28;20061;-73
2022/06/20 04:00:39;;;;;;;15.18;6.78;;;;;;;;;;4204161;28;20882;-73
2022/06/20 04:02:44;;;;;;;12.40;6.07;;;;;;;;;;4197468;28;20052;-73
2022/06/20 04:04:55;;;;;;;7.30;5.65;;;;;;;;;;4206820;28;20920;-73
2022/06/20 04:06:59;;;;;;;7.15;5.28;;;;;;;;;;4203390;28;20064;-73
2022/06/20 04:11:27;;;;;;;16.20;7.82;;;;;;;;;;4201948;28;20071;-74
2022/06/20 04:13:29;;;;;;;10.70;6.80;;;;;;;;;;4207398;28;20095;-75
2022/06/20 04:15:36;;;;;;;20.65;8.43;;;;;;;;;;4207238;28;20122;-75
2022/06/20 04:20:35;;;;;;;15.63;7.35;;;;;;;;;;4206839;28;20052;-75
2022/06/20 04:22:39;;;;;;;13.90;7.78;;;;;;;;;;4189106;28;20067;-75
2022/06/20 04:24:45;;;;;;;13.32;7.68;;;;;;;;;;4202009;28;21138;-75
2022/06/20 04:26:57;;;;;;;15.43;8.63;;;;;;;;;;4204747;28;20064;-75
2022/06/20 04:29:34;;;;;;;16.33;8.10;;;;;;;;;;4203756;28;20060;-75
2022/06/20 04:31:36;;;;;;;17.17;7.50;;;;;;;;;;4163979;28;20784;-75
2022/06/20 04:33:45;;;;;;;16.40;8.20;;;;;;;;;;4186628;28;20096;-75
2022/06/20 04:35:55;;;;;;;17.77;7.55;;;;;;;;;;4200842;28;20304;-75
2022/06/20 04:38:02;;;;;;;15.38;8.95;;;;;;;;;;4204052;28;20064;-76
2022/06/20 04:40:46;;;;;;;14.90;7.28;;;;;;;;;;4204208;28;20069;-76
2022/06/20 04:42:50;;;;;;;15.98;7.78;;;;;;;;;;4130783;28;20217;-76
2022/06/20 04:44:55;;;;;;;20.77;8.77;;;;;;;;;;4132145;28;20058;-77
2022/06/20 04:47:20;;;;;;;12.20;6.97;;;;;;;;;;4138842;28;20231;-77
2022/06/20 04:49:23;;;;;;;15.52;7.20;;;;;;;;;;4204101;28;20670;-78
2022/06/20 04:51:28;;;;;;;15.82;8.35;;;;;;;;;;4203202;28;20061;-81
2022/06/20 04:53:33;;;;;;;12.63;6.93;;;;;;;;;;4199931;28;20056;-76
2022/06/20 04:55:36;;;;;;;13.15;7.88;;;;;;;;;;4198727;28;20057;-78
2022/06/20 04:57:38;;;;;;;13.23;8.73;;;;;;;;;;4198205;28;20069;-79
2022/06/20 04:59:41;;;;;;;15.68;7.95;;;;;;;;;;4202484;28;20155;-76
2022/06/20 05:01:43;;;;;;;18.95;8.10;;;;;;;;;;4200830;28;20146;-77
2022/06/20 05:03:47;;;;;;;19.98;8.25;;;;;;;;;;4200239;28;20053;-77
2022/06/20 05:05:50;;;;;;;16.55;8.02;;;;;;;;;;4199780;28;20658;-76
2022/06/20 05:07:53;;;;;;;14.20;8.18;;;;;;;;;;4198706;28;20687;-76
2022/06/20 05:09:59;;;;;;;11.75;8.00;;;;;;;;;;4200102;28;20852;-77
2022/06/20 05:12:10;;;;;;;14.98;8.00;;;;;;;;;;4198682;28;20057;-75
2022/06/20 05:14:23;;;;;;;16.38;8.13;;;;;;;;;;4196243;28;20057;-77
2022/06/20 05:16:35;;;;;;;16.30;9.63;;;;;;;;;;4212770;28;20057;-79
2022/06/20 05:18:40;;;;;;;14.05;8.30;;;;;;;;;;4209822;28;20060;-82
2022/06/20 05:20:43;;;;;;;16.27;9.02;;;;;;;;;;4206527;28;20068;-79
2022/06/20 05:22:49;;;;;;;16.50;8.02;;;;;;;;;;4207592;28;20072;-76
2022/06/20 05:24:52;;;;;;;15.60;8.48;;;;;;;;;;4210024;28;20146;-77
2022/06/20 05:26:55;;;;;;;17.52;8.60;;;;;;;;;;4203835;28;20056;-77
2022/06/20 05:28:58;;;;;;;21.35;8.32;;;;;;;;;;4208775;28;20130;-77
2022/06/20 05:31:02;;;;;;;15.13;8.32;;;;;;;;;;4205186;28;20768;-77
2022/06/20 05:33:08;;;;;;;17.40;8.05;;;;;;;;;;4205936;28;20231;-76
2022/06/20 05:35:17;;;;;;;15.07;8.10;;;;;;;;;;4200976;28;20946;-76
2022/06/20 05:37:22;;;;;;;10.52;7.43;;;;;;;;;;4203690;28;20072;-78
2022/06/20 05:39:38;;;;;;;17.75;8.20;;;;;;;;;;4205821;28;20732;-77
2022/06/20 05:41:40;;;;;;;13.32;8.13;;;;;;;;;;4207926;28;20246;-78
2022/06/20 05:43:42;;;;;;;16.75;7.93;;;;;;;;;;4203751;28;20060;-76
2022/06/20 05:45:47;;;;;;;11.75;7.00;;;;;;;;;;4208420;28;20752;-79
2022/06/20 05:47:53;;;;;;;15.73;8.23;;;;;;;;;;4210160;28;20045;-79
2022/06/20 05:50:06;;;;;;;14.93;7.60;;;;;;;;;;4208623;28;20167;-78
2022/06/20 05:52:08;;;;;;;12.95;7.43;;;;;;;;;;4194652;28;20040;-77
2022/06/20 05:54:13;;;;;;;15.65;7.63;;;;;;;;;;4197390;28;20045;-77
2022/06/20 05:56:27;;;;;;;19.25;8.70;;;;;;;;;;4205862;28;20261;-76
2022/06/20 05:58:31;;;;;;;11.95;7.75;;;;;;;;;;4207381;28;20151;-77
2022/06/20 06:00:34;;;;;;;9.93;7.80;;;;;;;;;;4199833;28;20123;-75
2022/06/20 06:02:40;;;;;;;13.98;8.20;;;;;;;;;;4199791;28;20052;-77
2022/06/20 06:04:46;;;;;;;11.82;8.23;;;;;;;;;;4203676;28;20580;-76
2022/06/20 06:06:56;;;;;;;12.70;7.60;;;;;;;;;;4203320;28;20072;-76
2022/06/20 06:09:20;;;;;;;10.25;6.72;;;;;;;;;;4203082;28;20107;-76
2022/06/20 06:11:53;;;;;;;11.13;7.82;;;;;;;;;;4199219;28;20147;-77
2022/06/20 06:13:59;;;;;;;10.27;7.45;;;;;;;;;;4189276;28;20100;-77
2022/06/20 06:18:29;;;;;;;14.35;8.05;;;;;;;;;;4198570;28;20102;-75
2022/06/20 06:20:32;;;;;;;19.05;8.90;;;;;;;;;;4198639;28;20103;-74
2022/06/20 06:22:43;;;;;;;9.52;7.97;;;;;;;;;;4195602;28;20148;-75
2022/06/20 06:24:47;;;;;;;13.48;8.30;;;;;;;;;;4197122;28;20060;-77
2022/06/20 06:26:51;;;;;;;11.52;6.97;;;;;;;;;;4197632;28;20068;-75
2022/06/20 06:28:54;;;;;;;11.27;8.23;;;;;;;;;;4197485;28;20880;-76
2022/06/20 06:30:59;;;;;;;12.10;7.68;;;;;;;;;;4200019;28;20562;-75
2022/06/20 06:33:11;;;;;;;12.55;8.10;;;;;;;;;;4202929;28;20067;-76
2022/06/20 06:35:15;;;;;;;13.05;8.40;;;;;;;;;;4199084;28;20139;-75
2022/06/20 06:37:22;;;;;;;12.98;8.43;;;;;;;;;;4201665;28;20139;-76
2022/06/20 06:39:45;;;;;;;12.50;8.25;;;;;;;;;;4209732;28;20057;-79
2022/06/20 06:41:56;;;;;;;11.73;8.25;;;;;;;;;;4191618;28;20068;-77
2022/06/20 06:43:59;;;;;;;17.63;8.52;;;;;;;;;;4199433;28;20148;-77
2022/06/20 06:46:02;;;;;;;11.15;7.72;;;;;;;;;;4194974;28;20053;-77
2022/06/20 06:48:09;;;;;;;14.73;8.43;;;;;;;;;;4205757;28;20056;-80
2022/06/20 06:50:18;;;;;;;14.02;9.20;;;;;;;;;;4197540;28;20057;-77
2022/06/20 06:52:30;;;;;;;12.52;7.63;;;;;;;;;;4198312;28;20147;-80
2022/06/20 06:54:46;;;;;;;9.52;7.22;;;;;;;;;;4188440;28;20063;-76
2022/06/20 06:56:50;;;;;;;14.45;7.57;;;;;;;;;;4204460;28;20102;-78
2022/06/20 06:58:56;;;;;;;12.27;7.75;;;;;;;;;;4199486;28;20091;-77
2022/06/20 07:01:07;;;;;;;14.60;7.93;;;;;;;;;;4203961;28;21053;-76
2022/06/20 07:03:09;;;;;;;;;;;;;;;;;;4201566;28;20060;-77
2022/06/20 07:05:19;;;;;;;13.02;7.63;;;;;;;;;;4204283;28;44249;-77
2022/06/20 07:07:28;;;;;;;11.77;7.38;;;;;;;;;;4198840;28;20061;-77
2022/06/20 07:09:35;;;;;;;15.35;8.60;;;;;;;;;;4200201;28;20069;-77
2022/06/20 07:11:41;;;;;;;12.35;7.60;;;;;;;;;;4202101;28;20850;-78
2022/06/20 07:13:51;;;;;;;18.48;8.60;;;;;;;;;;4200546;28;20061;-77
2022/06/20 07:15:56;;;;;;;11.90;7.32;;;;;;;;;;4201873;28;20057;-76
2022/06/20 07:18:06;;;;;;;10.07;7.05;;;;;;;;;;4201124;28;20065;-77
2022/06/20 07:20:09;;;;;;;12.23;6.85;;;;;;;;;;4197713;28;20855;-77
2022/06/20 07:22:14;;;;;;;12.63;6.85;;;;;;;;;;4195776;28;20044;-77
2022/06/20 07:24:22;;;;;;;9.32;6.53;;;;;;;;;;4201390;28;20056;-78
2022/06/20 07:26:26;;;;;;;14.00;7.57;;;;;;;;;;4198375;28;20056;-78
2022/06/20 07:28:48;;;;;;;12.57;7.82;;;;;;;;;;4204540;28;20055;-79
2022/06/20 07:30:54;;;;;;;10.77;6.40;;;;;;;;;;4190811;28;20208;-77
2022/06/20 07:32:59;;;;;;;13.57;6.85;;;;;;;;;;4190830;28;20938;-78
2022/06/20 07:35:06;;;;;;;10.02;7.28;;;;;;;;;;4199874;28;20068;-78
2022/06/20 07:37:13;;;;;;;12.65;6.65;;;;;;;;;;4199962;28;20895;-78
2022/06/20 07:39:23;;;;;;;10.48;6.28;;;;;;;;;;4196910;28;20057;-79
2022/06/20 07:41:26;;;;;;;;;;;;;;;;;;4211276;28;20475;-78
2022/06/20 07:43:35;;;;;;;9.65;6.53;;;;;;;;;;4200108;28;41255;-79
2022/06/20 07:45:48;;;;;;;10.83;5.87;;;;;;;;;;4213639;28;20064;-83
2022/06/20 07:47:51;;;;;;;8.35;5.85;;;;;;;;;;4206224;28;20068;-78
2022/06/20 07:49:56;;;;;;;10.77;6.43;;;;;;;;;;4209903;28;20082;-78
2022/06/20 07:52:01;;;;;;;9.82;6.22;;;;;;;;;;4203373;28;20057;-78
2022/06/20 07:54:07;;;;;;;9.50;5.50;;;;;;;;;;4202454;28;20171;-80
2022/06/20 07:56:13;;;;;;;8.18;5.63;;;;;;;;;;4217625;28;20084;-78
2022/06/20 07:58:18;;;;;;;9.77;5.43;;;;;;;;;;4202163;28;20160;-77
2022/06/20 08:00:25;;;;;;;9.95;5.30;;;;;;;;;;4208773;28;20086;-78
2022/06/20 08:02:31;;;;;;;11.40;5.65;;;;;;;;;;4209563;28;20624;-78
2022/06/20 08:04:35;;;;;;;9.95;5.25;;;;;;;;;;4200139;28;20824;-79
2022/06/20 08:06:55;;;;;;;10.70;4.78;;;;;;;;;;4201678;28;20769;-77
2022/06/20 08:09:16;;;;;;;6.15;4.65;;;;;;;;;;4202475;28;20151;-79
2022/06/20 08:11:40;;;;;;;6.78;4.55;;;;;;;;;;4198491;28;20838;-79
2022/06/20 08:13:50;;;;;;;10.30;4.35;;;;;;;;;;4193957;28;20935;-78
2022/06/20 08:16:10;;;;;;;7.43;4.30;;;;;;;;;;4195062;28;20065;-78
2022/06/20 08:18:14;;;;;;;10.20;4.28;;;;;;;;;;4207680;28;20048;-77
2022/06/20 08:20:17;;;;;;;9.23;4.85;;;;;;;;;;4204732;28;20141;-77
2022/06/20 08:22:28;;;;;;;5.97;4.30;;;;;;;;;;4201114;28;20057;-78
2022/06/20 08:24:53;;;;;;;8.73;4.88;;;;;;;;;;4203298;28;20152;-78
2022/06/20 08:27:05;;;;;;;6.32;4.40;;;;;;;;;;4203429;28;20171;-77
2022/06/20 08:29:10;;;;;;;7.50;4.22;;;;;;;;;;4205633;28;20088;-77
2022/06/20 08:31:20;;;;;;;5.60;4.13;;;;;;;;;;4200156;28;20076;-77
2022/06/20 08:33:37;;;;;;;10.68;4.32;;;;;;;;;;4198000;28;20064;-76
2022/06/20 08:35:40;;;;;;;7.07;4.53;;;;;;;;;;4203282;28;20064;-78
2022/06/20 08:37:54;;;;;;;7.43;4.45;;;;;;;;;;4200371;28;20056;-77
2022/06/20 08:40:05;;;;;;;5.32;4.15;;;;;;;;;;4200947;28;20056;-77
2022/06/20 08:42:19;;;;;;;9.52;4.70;;;;;;;;;;4195130;28;20225;-77
2022/06/20 08:44:44;;;;;;;10.20;4.47;;;;;;;;;;4201126;28;20998;-77
2022/06/20 08:46:52;;;;;;;6.75;4.28;;;;;;;;;;4186188;28;20057;-77
2022/06/20 08:49:10;;;;;;;6.35;3.97;;;;;;;;;;4193411;28;20057;-76
2022/06/20 08:51:31;;;;;;;5.72;3.65;;;;;;;;;;4195407;28;20830;-76
2022/06/20 08:53:52;;;;;;;6.60;4.32;;;;;;;;;;4191364;28;20065;-77
2022/06/20 08:56:05;;;;;;;9.88;4.47;;;;;;;;;;4199568;28;20057;-80
2022/06/20 08:58:27;;;;;;;4.03;3.60;;;;;;;;;;4197644;28;20068;-78
2022/06/20 09:00:35;;;;;;;4.75;4.20;;;;;;;;;;4197173;28;20054;-77
2022/06/20 09:02:47;;;;;;;5.13;3.83;;;;;;;;;;4198702;28;20122;-80
2022/06/20 09:05:07;;;;;;;6.00;3.83;;;;;;;;;;4208904;28;20100;-82
2022/06/20 09:07:10;;;;;;;;;;;;;;;;;;4204612;28;20696;-79
2022/06/20 09:09:20;;;;;;;5.43;3.47;;;;;;;;;;4205520;28;43209;-76
2022/06/20 09:11:24;;;;;;;7.88;4.80;;;;;;;;;;4209485;28;20838;-77
2022/06/20 09:13:46;;;;;;;7.78;4.78;;;;;;;;;;4209229;28;20052;-78
2022/06/20 09:15:48;;;;;;;9.68;4.57;;;;;;;;;;4209688;28;20057;-77
2022/06/20 09:17:56;;;;;;;7.93;4.30;;;;;;;;;;4202152;28;20887;-77
2022/06/20 09:20:03;;;;;;;5.75;3.53;;;;;;;;;;4212702;28;20107;-82
2022/06/20 09:22:09;;;;;;;6.28;4.03;;;;;;;;;;4207420;28;20061;-77
2022/06/20 09:24:30;;;;;;;8.73;3.78;;;;;;;;;;4207253;28;20057;-77
2022/06/20 09:26:35;;;;;;;8.77;3.80;;;;;;;;;;4199554;28;20056;-76
2022/06/20 09:28:37;;;;;;;5.60;3.72;;;;;;;;;;4209202;28;20068;-78
2022/06/20 09:31:01;;;;;;;7.45;3.53;;;;;;;;;;4206130;28;20738;-79
2022/06/20 09:33:18;;;;;;;6.65;4.03;;;;;;;;;;4196880;28;20056;-77
2022/06/20 09:35:26;;;;;;;9.40;3.95;;;;;;;;;;4207592;28;20171;-78
2022/06/20 09:37:44;;;;;;;7.57;3.75;;;;;;;;;;4206242;28;20064;-79
2022/06/20 09:40:03;;;;;;;6.53;3.58;;;;;;;;;;4191655;28;20251;-78
2022/06/20 09:42:15;;;;;;;5.07;3.53;;;;;;;;;;4203079;28;20183;-79
2022/06/20 09:44:27;;;;;;;5.75;3.90;;;;;;;;;;4199774;28;20795;-78
2022/06/20 09:46:34;;;;;;;6.95;3.80;;;;;;;;;;4205711;28;20061;-80
2022/06/20 09:48:36;;;;;;;4.97;3.83;;;;;;;;;;4201382;28;21486;-78
2022/06/20 09:50:38;;;;;;;6.25;3.80;;;;;;;;;;4211834;28;20055;-77
2022/06/20 09:52:40;;;;;;;6.20;4.07;;;;;;;;;;4202857;28;20044;-77
2022/06/20 09:54:42;;;;;;;5.75;4.13;;;;;;;;;;4197882;28;20084;-77
2022/06/20 09:56:59;;;;;;;6.72;3.88;;;;;;;;;;4205717;28;20820;-77
2022/06/20 09:59:16;;;;;;;7.38;3.85;;;;;;;;;;4206263;28;20052;-77
2022/06/20 10:01:21;;;;;;;12.88;4.80;;;;;;;;;;4194257;28;20895;-79
2022/06/20 10:03:41;;;;;;;5.28;3.80;;;;;;;;;;4204888;28;20138;-78
2022/06/20 10:05:43;;;;;;;;;;;;;;;;;;4202702;28;20072;-79
2022/06/20 10:07:46;;;;;;;6.25;3.58;;;;;;;;;;4196452;28;43019;-77
2022/06/20 10:09:54;;;;;;;4.78;3.92;;;;;;;;;;4201647;28;20052;-78
2022/06/20 10:12:00;;;;;;;5.85;4.45;;;;;;;;;;4203516;28;20071;-80
2022/06/20 10:14:09;;;;;;;5.95;3.58;;;;;;;;;;4196819;28;21662;-80
2022/06/20 10:16:23;;;;;;;11.25;3.58;;;;;;;;;;4196503;28;20061;-80
2022/06/20 10:18:28;;;;;;;7.47;3.85;;;;;;;;;;4196018;28;20049;-80
2022/06/20 10:20:43;;;;;;;7.32;3.33;;;;;;;;;;4186672;28;20057;-80
2022/06/20 10:22:53;;;;;;;7.05;3.88;;;;;;;;;;4203274;28;20060;-77
2022/06/20 10:24:55;;;;;;;4.45;3.60;;;;;;;;;;4210490;28;20056;-79
2022/06/20 10:27:22;;;;;;;8.15;4.28;;;;;;;;;;4212316;28;20052;-79
2022/06/20 10:29:42;;;;;;;6.28;3.30;;;;;;;;;;4208528;28;20064;-77
2022/06/20 10:31:47;;;;;;;5.05;3.25;;;;;;;;;;4205765;28;20087;-77
2022/06/20 10:34:04;;;;;;;4.47;3.20;;;;;;;;;;4202991;28;20053;-78
2022/06/20 10:36:29;;;;;;;4.72;3.17;;;;;;;;;;4205205;28;20157;-80
2022/06/20 10:38:42;;;;;;;4.38;2.95;;;;;;;;;;4215056;28;20087;-79
2022/06/20 10:41:04;;;;;;;3.92;2.88;;;;;;;;;;4200938;28;20057;-80
2022/06/20 10:43:09;;;;;;;6.63;3.30;;;;;;;;;;4201168;28;20061;-79
2022/06/20 10:45:22;;;;;;;6.40;3.22;;;;;;;;;;4203961;28;20172;-81
2022/06/20 10:47:53;;;;;;;7.50;3.25;;;;;;;;;;4202341;28;20041;-79
2022/06/20 10:50:23;;;;;;;5.63;2.80;;;;;;;;;;4152093;28;20058;-79
2022/06/20 10:52:49;;;;;;;5.57;3.13;;;;;;;;;;4209059;28;20586;-78
2022/06/20 10:54:51;;;;;;;;;;;;;;;;;;4216405;28;20061;-79
2022/06/20 10:56:59;;;;;;;4.28;2.42;;;;;;;;;;4209856;28;43561;-78
2022/06/20 10:59:01;;;;;;;4.38;2.20;;;;;;;;;;4214253;28;20067;-80
2022/06/20 11:01:14;;;;;;;4.47;2.17;;;;;;;;;;4206985;28;20088;-79
2022/06/20 11:03:27;;;;;;;3.70;2.40;;;;;;;;;;4208498;28;20045;-79
2022/06/20 11:05:32;;;;;;;3.20;2.55;;;;;;;;;;4209660;28;20076;-77
2022/06/20 11:07:40;;;;;;;12.45;3.38;;;;;;;;;;4205415;28;20104;-81
2022/06/20 11:09:49;;;;;;;4.07;2.15;;;;;;;;;;4207240;28;20075;-81
2022/06/20 11:12:03;;;;;;;3.50;2.70;;;;;;;;;;4206892;28;20158;-80
2022/06/20 11:14:11;;;;;;;7.07;2.50;;;;;;;;;;4204599;28;20088;-80
2022/06/20 11:16:22;;;;;;;3.53;2.53;;;;;;;;;;4205332;28;20131;-83
2022/06/20 11:18:38;;;;;;;6.13;2.85;;;;;;;;;;4202183;28;20075;-80
2022/06/20 11:21:05;;;;;;;4.75;2.55;;;;;;;;;;4203148;28;20040;-80
2022/06/20 11:23:16;;;;;;;4.00;2.15;;;;;;;;;;4199794;28;20128;-80
2022/06/20 11:25:23;;;;;;;3.65;2.40;;;;;;;;;;4202053;28;20173;-83
2022/06/20 11:27:33;;;;;;;6.60;2.53;;;;;;;;;;4203446;28;20779;-81
2022/06/20 11:29:38;;;;;;;2.58;2.08;;;;;;;;;;4201986;28;20068;-82
2022/06/20 11:31:53;;;;;;;3.42;2.17;;;;;;;;;;4199930;28;20037;-79
2022/06/20 11:34:14;;;;;;;3.50;1.92;;;;;;;;;;4204772;28;20146;-82
2022/06/20 11:36:17;;;;;;;3.08;2.08;;;;;;;;;;4212289;28;20126;-78
2022/06/20 11:38:23;;;;;;;4.38;2.13;;;;;;;;;;4211445;28;20098;-79
2022/06/20 11:40:44;;;;;;;4.25;2.10;;;;;;;;;;4210551;28;21903;-79
2022/06/20 11:43:01;;;;;;;6.40;2.65;;;;;;;;;;4203778;28;20172;-80
2022/06/20 11:45:26;;;;;;;10.80;2.45;;;;;;;;;;4202093;28;20126;-80
2022/06/20 11:47:46;;;;;;;6.03;2.70;;;;;;;;;;4202601;28;20059;-78
2022/06/20 11:50:29;;;;;;;9.00;3.47;;;;;;;;;;4202163;28;20049;-77
2022/06/20 11:52:50;;;;;;;5.10;2.90;;;;;;;;;;4168583;28;20152;-78
2022/06/20 11:54:54;;;;;;;16.35;3.30;;;;;;;;;;4170903;28;20060;-81
2022/06/20 11:57:13;;;;;;;4.85;2.88;;;;;;;;;;4175606;28;21027;-76
2022/06/20 11:59:21;;;;;;;4.75;3.17;;;;;;;;;;4205209;28;20057;-81
2022/06/20 12:01:32;;;;;;;6.13;3.30;;;;;;;;;;4202160;28;20049;-79
2022/06/20 12:03:43;;;;;;;5.65;2.95;;;;;;;;;;4203937;28;20151;-80
2022/06/20 12:05:51;;;;;;;6.93;3.33;;;;;;;;;;4203725;28;20255;-82
2022/06/20 12:08:00;;;;;;;4.72;2.65;;;;;;;;;;4207682;28;20152;-80
2022/06/20 12:10:08;;;;;;;6.18;2.45;;;;;;;;;;4212233;28;20052;-80
2022/06/20 12:12:25;;;;;;;5.50;2.33;;;;;;;;;;4208288;28;20053;-82
2022/06/20 12:14:48;;;;;;;3.80;2.30;;;;;;;;;;4207238;28;20123;-81
2022/06/20 12:16:54;;;;;;;7.35;2.30;;;;;;;;;;4209883;28;20087;-78
2022/06/20 12:23:53;;;;;;;3.65;2.03;;;;;;;;;;4204862;28;20147;-79
2022/06/20 12:26:16;;;;;;;2.17;1.73;;;;;;;;;;4206860;28;20139;-80
2022/06/20 12:28:24;;;;;;;2.42;1.92;;;;;;;;;;4199445;28;20057;-81
2022/06/20 12:30:26;;;;;;;5.65;1.95;;;;;;;;;;4207361;28;20065;-80
2022/06/20 12:32:34;;;;;;;3.72;1.42;;;;;;;;;;4214961;28;21346;-80
2022/06/20 12:34:49;;;;;;;2.90;1.85;;;;;;;;;;4202116;28;20136;-80
2022/06/20 12:36:55;;;;;;;3.05;1.67;;;;;;;;;;4214033;28;20048;-80
2022/06/20 12:39:03;;;;;;;3.45;1.50;;;;;;;;;;4207206;28;20072;-77
2022/06/20 12:41:18;;;;;;;2.67;1.63;;;;;;;;;;4201121;28;20148;-82
2022/06/20 12:43:28;;;;;;;3.97;1.20;;;;;;;;;;4206068;28;20773;-80
2022/06/20 12:45:39;;;;;;;3.88;1.30;;;;;;;;;;4201280;28;20168;-80
2022/06/20 12:47:53;;;;;;;1.50;1.40;;;;;;;;;;4201659;28;20067;-81
2022/06/20 12:50:08;;;;;;;4.40;3.30;;;;;;;;;;4200119;28;20871;-78
2022/06/20 12:52:23;;;;;;;8.80;3.20;;;;;;;;;;4198493;28;20061;-81
2022/06/20 12:54:44;;;;;;;7.70;3.60;;;;;;;;;;4203654;28;20798;-77
2022/06/20 12:57:05;;;;;;;6.57;3.38;;;;;;;;;;4205096;28;20057;-79
2022/06/20 12:59:13;;;;;;;8.15;3.47;;;;;;;;;;4203879;28;20068;-78
2022/06/20 13:01:26;;;;;;;6.88;3.33;;;;;;;;;;4203007;28;20175;-77
2022/06/20 13:03:38;;;;;;;6.78;3.47;;;;;;;;;;4205879;28;20238;-79
2022/06/20 13:05:58;;;;;;;5.75;3.50;;;;;;;;;;4200511;28;20068;-81